Tiempo atmosférico en la estación meteorológica de Pedrosa Del Príncipe, Burgos (771 m.)



Fecha
DESCASC
Temp. máxima en grados centígrados (hora)
DESCASC
Temp. mínima en grados centígrados (hora)
DESCASC
Temp. media en grados centígrados
DESCASC
Racha de viento máxima en m/sg (hora)
DESCASC
Velocidad máxima media en intervalos de 10 minutos(hora)
DESCASC
Precipitaciones diarias en mm
DESCASC
Precipitaciones de 00:00 a 06:00 en mm
DESCASC
Precipitaciones de 06:00 a 12:00 en mm
DESCASC
Precipitaciones de 12:00 a 18:00 en mm
DESCASC
Precipitaciones de 18:00 a 24:00 en mm
DESCASC
22-04-2019 16.3 (19:00) 7.5 (06:00) 11.9 6.11 (15:40) 3.33 (13:40) 0 0 0 0 0
21-04-2019 14.7 (17:50) 3.7 (08:00) 9.2 10.28 (15:10) 6.11 (17:50) 0 0 0 0 0
20-04-2019 20.6 (16:30) 6.4 (06:00) 13.5 13.33 (15:50) 8.61 (16:50) 0 0 0 0 0
19-04-2019 14.4 (16:40) 8.3 (06:30) 11.3 12.22 (18:10) 7.22 (20:00) 2 1.8 0.2 0 0
18-04-2019 13.6 (00:00) 8.2 (00:00) 10.9 8.06 (00:20) 5 (14:00) 10 2.2 3.4 2.2 2.2
17-04-2019 19.3 (17:20) 10.3 (00:00) 14.8 10.28 (09:50) 6.39 (10:00) 0.8 0 0 0 0.8
16-04-2019 19 (18:40) 3.8 (00:00) 11.4 7.22 (15:30) 3.61 (15:30) 0 0 0 0 0
15-04-2019 21.3 (13:40) 9 (00:00) 15.1 15.28 (14:50) 8.61 (14:50) 0.6 0 0 0.6 0
14-04-2019 20.6 (15:10) 10 (00:00) 15.3 6.67 (10:40) 3.89 (03:10) 0 0 0 0 0
13-04-2019 20 (17:50) -2.6 (-00:0) 8.7 7.5 (17:20) 3.89 (17:30) 0 0 0 0 0
12-04-2019 16.5 (18:20) -2.2 (-00:0) 7.1 5.83 (16:10) 3.33 (17:40) 0 0 0 0 0
11-04-2019 13.5 (17:50) -1.7 (-00:0) 5.9 8.33 (19:20) 5 (19:20) 0 0 0 0 0
10-04-2019 12.8 (17:00) 2.2 (00:00) 7.5 11.67 (18:10) 8.06 (18:20) 0 0 0 0 0
09-04-2019 11.4 (19:10) 3.9 (00:00) 7.6 13.33 (13:10) 6.94 (17:00) 2.4 0 1 1.4 0
08-04-2019 13.7 (16:30) 5.5 (00:00) 9.6 10.28 (02:50) 6.11 (16:10) 1.4 1.2 0.2 0 0
07-04-2019 12 (17:10) 0.4 (00:00) 6.2 11.11 (19:00) 6.67 (19:00) 3.6 0 0 0 3.6
06-04-2019 7.9 (16:30) 2.4 (00:00) 5.2 14.44 (17:50) 8.06 (14:00) 2.6 0 0.2 2.4 0
05-04-2019 7.3 (19:10) 3 (00:00) 5.2 8.33 (04:00) 5 (12:00) 5.2 2 0.8 0.8 1.6
04-04-2019 11.8 (16:50) -2.7 (-00:0) 4.6 14.44 (18:40) 7.22 (18:40) 1.2 0 0 0 1.2
03-04-2019 12.6 (15:30) 0.7 (00:00) 6.7 15.56 (16:10) 11.11 (16:10) 0 0 0 0 0
02-04-2019 18.1 (16:10) 3.8 (00:00) 11 11.39 (16:00) 5.56 (19:50) 0 0 0 0 0
01-04-2019 17.2 (16:40) -0.9 (-00:0) 8.2 5.83 (14:10) 3.61 (14:10) 0 0 0 0 0
31-03-2019 18.7 (16:50) 1.1 (00:00) 9.9 9.17 (19:20) 5.28 (19:40) 0 0 0 0 0
30-03-2019 19.4 (15:40) 4.2 (00:00) 11.8 8.33 (13:50) 4.17 (19:30) 0 0 0 0 0
29-03-2019 19.6 (17:10) -0.9 (-00:0) 9.4 7.22 (11:10) 4.17 (13:00) 0 0 0 0 0
28-03-2019 17.2 (15:40) -0.2 (00:00) 8.5 12.78 (15:50) 6.67 (15:50) 0 0 0 0 0
27-03-2019 17.8 (16:20) 0.3 (00:00) 9 13.89 (12:30) 8.89 (16:40) 0 0 0 0 0
26-03-2019 15.4 (16:10) 2.4 (00:00) 8.9 17.78 (13:30) 10.83 (11:20) 0 0 0 0 0
25-03-2019 13.6 (15:10) 0.8 (00:00) 7.2 13.61 (15:00) 8.89 (15:30) 0 0 0 0 0

Gráficas

Temp. máximas Temp. mínimas Temp. medias Precipitaciones Rachas de viento máximas Velocidades máximas media en intervalos de 10 minutos

Datos horarios

Fecha y hora oficial Temperatura (ºC) Velocidad del viento (km/h) Dirección del viento Racha (km/h) Dirección de racha Precipitación (mm) Presión (hPa) Tendencia (hPa) Humedad (%)
2019-04-23 23:00:00 5.2 10 Sudoeste 19 Sudoeste 0 -- -- 83
2019-04-23 22:00:00 6.1 13 Sudoeste 24 Sudoeste 0 -- -- 82
2019-04-23 21:00:00 6.7 9 Sudoeste 14 Sudoeste 0.2 -- -- 81
2019-04-23 20:00:00 5.4 6 Noroeste 48 Oeste 2.6 -- -- 89
2019-04-23 19:00:00 6.7 30 Oeste 52 Oeste 0.2 -- -- 77
2019-04-23 18:00:00 12.1 15 Oeste 28 Sudoeste 0 -- -- 48
2019-04-23 17:00:00 11.9 12 Sudoeste 26 Sudoeste 0 -- -- 52
2019-04-23 16:00:00 10.3 12 Sudoeste 31 Oeste 0 -- -- 59
2019-04-23 15:00:00 8.5 15 Oeste 27 Oeste 0 -- -- 69
2019-04-23 14:00:00 7.9 14 Sudoeste 30 Oeste 0 -- -- 74
2019-04-23 13:00:00 8.3 16 Oeste 26 Sudoeste 0 -- -- 73
2019-04-23 12:00:00 7.2 14 Sudoeste 26 Sudoeste 0 -- -- 83
2019-04-23 11:00:00 7 13 Oeste 22 Oeste 0 -- -- 84
2019-04-23 10:00:00 7.1 14 Oeste 22 Sudoeste 0 -- -- 84
2019-04-23 09:00:00 6.7 14 Sudoeste 25 Oeste 0.2 -- -- 87
2019-04-23 08:00:00 6.8 12 Sudoeste 35 Oeste 0.6 -- -- 88
2019-04-23 07:00:00 9.5 9 Sur 17 Sur 0 -- -- 87
2019-04-23 06:00:00 9.5 10 Sur 17 Sudeste 0 -- -- 87
2019-04-23 05:00:00 9.2 2 Sudeste 8 Sur 0.8 -- -- 89
2019-04-23 04:00:00 9.2 4 Sudoeste 14 Sudoeste 1.2 -- -- 90
2019-04-23 03:00:00 9.9 10 Sudoeste 17 Sudoeste 1.2 -- -- 86
2019-04-23 02:00:00 10.5 5 Oeste 17 Sudeste 0 -- -- 79
2019-04-23 01:00:00 11 10 Sur 18 Sur 0.2 -- -- 75
2019-04-23 00:00:00 11.8 6 Sur 19 Sudeste 0 -- -- 69
2019-04-22 23:00:00 11.7 10 Sur 18 Sudeste 0 -- -- 66
2019-04-22 22:00:00 11.7 9 Sudeste 17 Sudeste 0 -- -- 65
2019-04-22 21:00:00 12.7 8 Sur 14 Sur 0 -- -- 62
2019-04-22 20:00:00 15.4 6 Sur 14 Sudoeste 0 -- -- 51
2019-04-22 19:00:00 16.3 9 Sudoeste 18 Sudoeste 0 -- -- 46
2019-04-22 18:00:00 15.1 9 Sudoeste 16 Sudoeste 0 -- -- 49
2019-04-22 17:00:00 15.3 7 Sur 15 Sudoeste 0 -- -- 51
2019-04-22 16:00:00 15.5 10 Sudoeste 22 Sudoeste 0 -- -- 52
2019-04-22 15:00:00 14.4 10 Sudoeste 20 Sur 0 -- -- 55
2019-04-22 14:00:00 14.1 10 Sudoeste 22 Sudoeste 0 -- -- 57
2019-04-22 13:00:00 13.1 7 Oeste 15 Sudoeste 0 -- -- 62
2019-04-22 12:00:00 11.6 4 Oeste 14 Oeste 0 -- -- 69
2019-04-22 11:00:00 10.4 3 Oeste 7 Oeste 0 -- -- 73
2019-04-22 10:00:00 9.4 3 Oeste 10 Oeste 0 -- -- 85
2019-04-22 09:00:00 8.3 4 Este 6 Nordeste 0 -- -- 91
2019-04-22 08:00:00 7.8 2 Sudoeste 3 Sudoeste 0 -- -- 91
2019-04-22 07:00:00 7.5 0 Calma 8 Este 0 -- -- 92
2019-04-22 06:00:00 7.5 4 Nordeste 13 Este 0 -- -- 91
2019-04-22 05:00:00 8 3 Este 7 Este 0 -- -- 90
2019-04-22 04:00:00 8.1 0 Calma 9 Este 0 -- -- 89
2019-04-22 03:00:00 8.2 4 Este 11 Este 0 -- -- 89
2019-04-22 02:00:00 8.2 3 Este 10 Nordeste 0 -- -- 88
2019-04-22 01:00:00 8 5 Este 12 Este 0 -- -- 88
2019-04-22 00:00:00 8.2 6 Este 14 Este 0 -- -- 86
2019-04-21 23:00:00 8.9 7 Este 13 Nordeste 0 -- -- 85
2019-04-21 22:00:00 9.4 6 Nordeste 11 Nordeste 0 -- -- 80
2019-04-21 21:00:00 10.3 7 Nordeste 20 Nordeste 0 -- -- 74
2019-04-21 20:00:00 11.6 13 Nordeste 27 Nordeste 0 -- -- 68
2019-04-21 19:00:00 12.5 18 Nordeste 32 Nordeste 0 -- -- 63
2019-04-21 18:00:00 14.3 21 Nordeste 37 Nordeste 0 -- -- 57
2019-04-21 17:00:00 13.2 16 Nordeste 32 Este 0 -- -- 64
2019-04-21 16:00:00 14.3 21 Este 37 Este 0 -- -- 59
2019-04-21 15:00:00 13.7 16 Este 34 Este 0 -- -- 59
2019-04-21 14:00:00 13.6 15 Nordeste 30 Este 0 -- -- 60
2019-04-21 13:00:00 12.5 14 Este 32 Este 0 -- -- 65
2019-04-21 12:00:00 10.8 15 Este 32 Este 0 -- -- 69
2019-04-21 11:00:00 10.7 16 Este 30 Este 0 -- -- 72
2019-04-21 10:00:00 8.9 16 Este 27 Este 0 -- -- 81
2019-04-21 09:00:00 6.5 12 Nordeste 22 Este 0 -- -- 95
2019-04-21 08:00:00 3.7 5 Este 13 Este 0 -- -- 91
2019-04-21 07:00:00 4.7 5 Nordeste 19 Nordeste 0 -- -- 88
2019-04-21 06:00:00 5.4 4 Este 12 Este 0 -- -- 89
2019-04-21 05:00:00 6.2 8 Nordeste 12 Nordeste 0 -- -- 88
2019-04-21 04:00:00 7.4 6 Este 14 Este 0 -- -- 82
2019-04-21 03:00:00 8.6 9 Nordeste 17 Este 0 -- -- 78
2019-04-21 02:00:00 7.6 5 Nordeste 16 Nordeste 0 -- -- 79
2019-04-21 01:00:00 9.1 7 Nordeste 15 Nordeste 0 -- -- 73
2019-04-21 00:00:00 9.9 9 Nordeste 24 Este 0 -- -- 69
2019-04-20 23:00:00 10.9 17 Nordeste 28 Nordeste 0 -- -- 67
2019-04-20 22:00:00 11.4 16 Nordeste 30 Nordeste 0 -- -- 65
2019-04-20 21:00:00 13.7 19 Nordeste 39 Nordeste 0 -- -- 56
2019-04-20 20:00:00 16.8 23 Nordeste 40 Nordeste 0 -- -- 42
2019-04-20 19:00:00 18.6 22 Nordeste 42 Nordeste 0 -- -- 36
2019-04-20 18:00:00 19.7 22 Nordeste 48 Nordeste 0 -- -- 35
2019-04-20 17:00:00 20.4 26 Nordeste 47 Nordeste 0 -- -- 34
2019-04-20 16:00:00 20.4 25 Nordeste 48 Nordeste 0 -- -- 36
2019-04-20 15:00:00 19.9 22 Nordeste 40 Este 0 -- -- 42
2019-04-20 14:00:00 19.3 19 Nordeste 41 Este 0 -- -- 44
2019-04-20 13:00:00 18.5 20 Nordeste 39 Nordeste 0 -- -- 49
2019-04-20 12:00:00 16.6 23 Nordeste 38 Nordeste 0 -- -- 55
2019-04-20 11:00:00 14.4 27 Nordeste 40 Nordeste 0 -- -- 74
2019-04-20 10:00:00 12.5 16 Nordeste 25 Nordeste 0 -- -- 76
2019-04-20 09:00:00 9.2 8 Este 23 Este 0 -- -- 85
2019-04-20 08:00:00 6.7 11 Este 19 Este 0 -- -- 87
2019-04-20 07:00:00 7.3 11 Este 19 Este 0 -- -- 86
2019-04-20 06:00:00 6.4 9 Este 14 Este 0 -- -- 87
2019-04-20 05:00:00 8.2 9 Nordeste 23 Este 0 -- -- 84
2019-04-20 04:00:00 8 4 Este 5 Nordeste 0 -- -- 87
2019-04-20 03:00:00 9.1 3 Nordeste 9 Norte 0 -- -- 84
2019-04-20 02:00:00 9.5 7 Nordeste 10 Nordeste 0 -- -- 84
2019-04-20 01:00:00 11 6 Este 17 Este 0 -- -- 76
2019-04-20 00:00:00 11.1 9 Este 19 Nordeste 0 -- -- 75
2019-04-19 23:00:00 12.2 11 Nordeste 24 Este 0 -- -- 66
2019-04-19 22:00:00 12.6 13 Nordeste 35 Este 0 -- -- 64
2019-04-19 21:00:00 13.2 20 Este 37 Nordeste 0 -- -- 61
2019-04-19 20:00:00 13.3 26 Este 44 Este 0 -- -- 64
2019-04-19 19:00:00 13.2 17 Este 44 Este 0 -- -- 71
2019-04-19 18:00:00 13.6 21 Este 36 Este 0 -- -- 72
2019-04-19 17:00:00 14 21 Este 37 Este 0 -- -- 70
2019-04-19 16:00:00 12.1 11 Este 19 Nordeste 0 -- -- 80
2019-04-19 15:00:00 10.3 10 Nordeste 25 Este 0 -- -- 85
2019-04-19 14:00:00 10.5 15 Este 29 Este 0 -- -- 86
2019-04-19 13:00:00 10.3 15 Nordeste 36 Este 0 -- -- 87
2019-04-19 12:00:00 10.3 17 Nordeste 36 Este 0 -- -- 85
2019-04-19 11:00:00 10.6 19 Nordeste 34 Nordeste 0 -- -- 85
2019-04-19 10:00:00 9.6 17 Nordeste 32 Este 0 -- -- 89
2019-04-19 09:00:00 8.6 15 Este 28 Nordeste 0.2 -- -- 91
2019-04-19 08:00:00 8.3 7 Nordeste 14 Este 0 -- -- 93
2019-04-19 07:00:00 8.3 8 Nordeste 17 Nordeste 0 -- -- 92
2019-04-19 06:00:00 8.4 9 Nordeste 16 Nordeste 0 -- -- 91
2019-04-19 05:00:00 8.5 10 Nordeste 17 Nordeste 0 -- -- 88
2019-04-19 04:00:00 9 11 Este 24 Sudeste 0.6 -- -- 88
2019-04-19 03:00:00 9.2 14 Este 33 Este 0.4 -- -- 89
2019-04-19 02:00:00 8.8 11 Este 20 Este 0.2 -- -- 94
2019-04-19 01:00:00 8.5 6 Nordeste 12 Nordeste 0.6 -- -- 93
2019-04-19 00:00:00 8.6 6 Nordeste 18 Este 1 -- -- 92
2019-04-18 23:00:00 9.2 13 Este 27 Este 0.4 -- -- 89
2019-04-18 22:00:00 9.4 4 Este 9 Este 0 -- -- 92
2019-04-18 21:00:00 9.4 6 Nordeste 12 Nordeste 0 -- -- 90
2019-04-18 20:00:00 9.6 8 Nordeste 15 Nordeste 0.2 -- -- 89
2019-04-18 19:00:00 9.5 7 Nordeste 19 Este 0.6 -- -- 90
2019-04-18 18:00:00 10.3 8 Este 16 Este 0.4 -- -- 84
2019-04-18 17:00:00 10 6 Este 18 Este 0.2 -- -- 83
2019-04-18 16:00:00 9.8 11 Nordeste 17 Este 0 -- -- 83
2019-04-18 15:00:00 9.6 7 Este 28 Sudeste 0.4 -- -- 84
2019-04-18 14:00:00 8.9 18 Sudeste 26 Sudeste 1 -- -- 87
2019-04-18 13:00:00 9.1 16 Sudeste 28 Sudeste 0.2 -- -- 85
2019-04-18 12:00:00 9.6 15 Sudeste 27 Sudeste 0.2 -- -- 85
2019-04-18 11:00:00 9.2 17 Sudeste 26 Sudeste 0 -- -- 88
2019-04-18 10:00:00 8.7 5 Este 10 Este 0.4 -- -- 91
2019-04-18 09:00:00 8.2 3 Este 8 Este 0.8 -- -- 92
2019-04-18 08:00:00 8.5 4 Este 11 Sudeste 0.8 -- -- 90
2019-04-18 07:00:00 8.9 4 Sudeste 9 Sudeste 1.2 -- -- 88
2019-04-18 06:00:00 9.1 5 Sur 10 Sur 0.4 -- -- 87
2019-04-18 05:00:00 9.2 5 Sudoeste 9 Sudoeste 0.8 -- -- 90
2019-04-18 04:00:00 9.6 7 Oeste 26 Oeste 1 -- -- 89
2019-04-18 03:00:00 10.7 4 Oeste 8 Oeste 0 -- -- 87
2019-04-18 02:00:00 11.1 0 Calma 16 Oeste 0 -- -- 82
2019-04-18 01:00:00 12.1 10 Oeste 29 Sudeste 0 -- -- 79
2019-04-18 00:00:00 13.6 15 Sudeste 28 Sudeste 0 -- -- 75
2019-04-17 23:00:00 13.7 13 Sur 22 Sudeste 0.4 -- -- 74
2019-04-17 22:00:00 13.9 13 Sur 26 Sur 0.2 -- -- 75
2019-04-17 21:00:00 14.5 15 Sudeste 26 Sur 0.2 -- -- 71
2019-04-17 20:00:00 17.1 11 Sudoeste 23 Sur 0 -- -- 56
2019-04-17 19:00:00 18.8 8 Sudoeste 23 Sudoeste 0 -- -- 44
2019-04-17 18:00:00 19.2 14 Sudoeste 29 Sudoeste 0 -- -- 38
2019-04-17 17:00:00 18.9 7 Sudeste 25 Sudeste 0 -- -- 46
2019-04-17 16:00:00 18.3 8 Sudeste 20 Sudeste 0 -- -- 49
2019-04-17 15:00:00 17.4 11 Sur 23 Sur 0 -- -- 50
2019-04-17 14:00:00 16.7 15 Sur 26 Sudeste 0 -- -- 55
2019-04-17 13:00:00 15.1 14 Sudeste 34 Sudeste 0 -- -- 61
2019-04-17 12:00:00 14 14 Sudeste 32 Sudeste 0 -- -- 64
2019-04-17 11:00:00 12.6 21 Sudeste 32 Sudeste 0 -- -- 67
2019-04-17 10:00:00 11.7 23 Sudeste 37 Sudeste 0 -- -- 69
2019-04-17 09:00:00 11 14 Sudeste 31 Sudeste 0 -- -- 72
2019-04-17 08:00:00 10.3 19 Sudeste 30 Sudeste 0 -- -- 74
2019-04-17 07:00:00 10.4 12 Sudeste 30 Sudeste 0 -- -- 73
2019-04-17 06:00:00 11.2 19 Sudeste 32 Sudeste 0 -- -- 68
2019-04-17 05:00:00 11.1 15 Sudeste 29 Sudeste 0 -- -- 63
2019-04-17 04:00:00 11.7 20 Sudeste 36 Sudeste 0 -- -- 61
2019-04-17 03:00:00 11.5 15 Sudeste 26 Sudeste 0 -- -- 63
2019-04-17 02:00:00 12 15 Sudeste 28 Sudeste 0 -- -- 60
2019-04-17 01:00:00 11.7 15 Sudeste 24 Sudeste 0 -- -- 61
2019-04-17 00:00:00 11 0 Calma 13 Nordeste 0 -- -- 74
2019-04-16 23:00:00 10.3 5 Norte 13 Nordeste 0 -- -- 78
2019-04-16 22:00:00 10.9 9 Nordeste 13 Nordeste 0 -- -- 68
2019-04-16 21:00:00 14.5 5 Nordeste 9 Nordeste 0 -- -- 57
2019-04-16 20:00:00 18.4 5 Este 12 Sudeste 0 -- -- 42
2019-04-16 19:00:00 18.8 5 Sudoeste 17 Este 0 -- -- 38
2019-04-16 18:00:00 18.5 9 Sudeste 19 Sudeste 0 -- -- 36
2019-04-16 17:00:00 18.1 9 Sur 23 Sudeste 0 -- -- 32
2019-04-16 16:00:00 17.8 9 Sur 26 Sudeste 0 -- -- 37
2019-04-16 15:00:00 16.7 9 Sudeste 21 Sur 0 -- -- 45
2019-04-16 14:00:00 15.7 9 Sur 17 Sur 0 -- -- 41
2019-04-16 13:00:00 13.4 3 Sudeste 9 Sur 0 -- -- 59
2019-04-16 12:00:00 12.5 4 Sur 12 Sudeste 0 -- -- 63
2019-04-16 11:00:00 10.5 6 Sudeste 12 Sur 0 -- -- 73
2019-04-16 10:00:00 8 0 Calma 6 Sudoeste 0 -- -- 85
2019-04-16 09:00:00 5.5 3 Oeste 9 Sudoeste 0 -- -- 90
2019-04-16 08:00:00 3.8 2 Oeste 8 Sudoeste 0 -- -- 89
2019-04-16 07:00:00 5.5 5 Oeste 6 Oeste 0 -- -- 88
2019-04-16 06:00:00 5.9 3 Este 6 Este 0 -- -- 89
2019-04-16 05:00:00 6.3 3 Este 9 Nordeste 0 -- -- 87
2019-04-16 04:00:00 7.4 4 Este 14 Este 0 -- -- 86
2019-04-16 03:00:00 7.2 3 Este 9 Nordeste 0 -- -- 87
2019-04-16 02:00:00 8.6 6 Este 12 Este 0 -- -- 81
2019-04-16 01:00:00 10.2 4 Oeste 19 Norte 0 -- -- 70
2019-04-16 00:00:00 10.2 6 Sudoeste 13 Sudoeste 0 -- -- 70
2019-04-15 23:00:00 11.1 8 Oeste 26 Oeste 0 -- -- 68
2019-04-15 22:00:00 12.4 7 Oeste 17 Oeste 0 -- -- 63
2019-04-15 21:00:00 13 10 Sudoeste 33 Oeste 0 -- -- 61
2019-04-15 20:00:00 13.6 17 Oeste 39 Oeste 0 -- -- 55
2019-04-15 19:00:00 15.3 26 Oeste 49 Oeste 0 -- -- 52
2019-04-15 18:00:00 16.5 26 Oeste 50 Oeste 0.2 -- -- 53
2019-04-15 17:00:00 18.4 21 Oeste 40 Oeste 0 -- -- 59
2019-04-15 16:00:00 14.8 11 Sur 34 Sudoeste 0.4 -- -- 76
2019-04-15 15:00:00 15.6 26 Oeste 55 Oeste 0 -- -- 70
2019-04-15 14:00:00 20.5 23 Sudoeste 38 Sudoeste 0 -- -- 51
2019-04-15 13:00:00 20.3 17 Sur 33 Sur 0 -- -- 55
2019-04-15 12:00:00 17.6 14 Sur 24 Sudeste 0 -- -- 62
2019-04-15 11:00:00 15.5 14 Sur 22 Sur 0 -- -- 68
2019-04-15 10:00:00 13.7 3 Nordeste 17 Sur 0 -- -- 71
2019-04-15 09:00:00 12.4 3 Sudoeste 14 Sudeste 0 -- -- 74
2019-04-15 08:00:00 11.7 3 Norte 10 Sur 0 -- -- 75
2019-04-15 07:00:00 11.7 3 Noroeste 10 Sudeste 0 -- -- 77
2019-04-15 06:00:00 10.6 0 Calma 13 Este 0 -- -- 80
2019-04-15 05:00:00 11.3 4 Este 12 Este 0 -- -- 77
2019-04-15 04:00:00 10.7 4 Este 12 Nordeste 0 -- -- 82
2019-04-15 03:00:00 9.1 0 Calma 8 Nordeste 0 -- -- 83
2019-04-15 02:00:00 9.6 5 Este 7 Nordeste 0 -- -- 82
2019-04-15 01:00:00 11.2 0 Calma 10 Sudoeste 0 -- -- 77
2019-04-15 00:00:00 12.6 4 Sudoeste 10 Sudoeste 0 -- -- 73
2019-04-14 23:00:00 13.4 3 Este 6 Sudeste 0 -- -- 71
2019-04-14 22:00:00 14.5 0 Calma 11 Sudeste 0 -- -- 66
2019-04-14 21:00:00 16.7 6 Sudeste 10 Sudeste 0 -- -- 60
2019-04-14 20:00:00 19.5 6 Sudeste 12 Sudeste 0 -- -- 52
2019-04-14 19:00:00 20.5 6 Sudoeste 9 Sudoeste 0 -- -- 48
2019-04-14 18:00:00 20.2 3 Sudoeste 13 Oeste 0 -- -- 48
2019-04-14 17:00:00 20.6 7 Oeste 21 Noroeste 0 -- -- 47
2019-04-14 16:00:00 20.6 9 Oeste 17 Oeste 0 -- -- 49
2019-04-14 15:00:00 20.4 8 Sudoeste 20 Oeste 0 -- -- 51
2019-04-14 14:00:00 18.9 11 Oeste 23 Oeste 0 -- -- 54
2019-04-14 13:00:00 16.4 9 Sudoeste 18 Sudoeste 0 -- -- 62
2019-04-14 12:00:00 15.2 8 Oeste 21 Noroeste 0 -- -- 71
2019-04-14 11:00:00 14 11 Oeste 24 Oeste 0 -- -- 75
2019-04-14 10:00:00 12.4 11 Sudoeste 19 Sudoeste 0 -- -- 80
2019-04-14 09:00:00 10.8 7 Sudoeste 13 Sudoeste 0 -- -- 85
2019-04-14 08:00:00 10.1 8 Sudoeste 14 Sudoeste 0 -- -- 84
2019-04-14 07:00:00 10.9 8 Sudoeste 13 Sudoeste 0 -- -- 79
2019-04-14 06:00:00 11.6 8 Oeste 20 Oeste 0 -- -- 75
2019-04-14 05:00:00 12.1 6 Sudoeste 15 Sudoeste 0 -- -- 71
2019-04-14 04:00:00 12.6 11 Sudoeste 22 Sudoeste 0 -- -- 67
2019-04-14 03:00:00 13 13 Sudoeste 23 Sudoeste 0 -- -- 62
2019-04-14 02:00:00 12.7 12 Sudoeste 23 Sudoeste 0 -- -- 63
2019-04-14 01:00:00 12 8 Sudoeste 13 Sudoeste 0 -- -- 62
2019-04-14 00:00:00 11.3 6 Sudoeste 10 Sudoeste 0 -- -- 56
2019-04-13 23:00:00 12.6 3 Oeste 5 Sudoeste 0 -- -- 56
2019-04-13 22:00:00 13.8 5 Sudoeste 8 Sudoeste 0 -- -- 48
2019-04-13 21:00:00 15.8 6 Sudoeste 14 Sudoeste 0 -- -- 43
2019-04-13 20:00:00 18.4 9 Oeste 22 Oeste 0 -- -- 35
2019-04-13 19:00:00 18.9 13 Sudoeste 26 Oeste 0 -- -- 33
2019-04-13 18:00:00 19.8 14 Oeste 27 Oeste 0 -- -- 31
2019-04-13 17:00:00 19.5 13 Oeste 25 Oeste 0 -- -- 33
2019-04-13 16:00:00 19.3 6 Oeste 25 Sur 0 -- -- 33
2019-04-13 15:00:00 18.6 12 Noroeste 24 Noroeste 0 -- -- 33
2019-04-13 14:00:00 17.3 8 Oeste 21 Oeste 0 -- -- 38
2019-04-13 13:00:00 15.4 5 Oeste 13 Oeste 0 -- -- 46
2019-04-13 12:00:00 12.3 3 Sudoeste 9 Sur 0 -- -- 47
2019-04-13 11:00:00 8.1 2 Sudoeste 8 Oeste 0 -- -- 68
2019-04-13 10:00:00 4 4 Sudoeste 6 Sudoeste 0 -- -- 82
2019-04-13 09:00:00 -0.4 0 Calma 3 Sudeste 0 -- -- 94
2019-04-13 08:00:00 -2.5 0 Calma 9 Este 0 -- -- 91
2019-04-13 07:00:00 -2 5 Este 10 Este 0 -- -- 92
2019-04-13 06:00:00 -1.9 0 Calma 3 Este 0 -- -- 90
2019-04-13 05:00:00 -0.9 0 Calma 5 Este 0 -- -- 88
2019-04-13 04:00:00 -0.7 3 Nordeste 5 Nordeste 0 -- -- 86
2019-04-13 03:00:00 1.7 2 Oeste 9 Este 0 -- -- 82
2019-04-13 02:00:00 3.1 5 Este 10 Nordeste 0 -- -- 80
2019-04-13 01:00:00 4.4 6 Este 10 Este 0 -- -- 76
2019-04-13 00:00:00 5.6 5 Este 9 Este 0 -- -- 70
2019-04-12 23:00:00 6.3 3 Nordeste 12 Nordeste 0 -- -- 64
2019-04-12 22:00:00 8.1 6 Nordeste 10 Nordeste 0 -- -- 61
2019-04-12 21:00:00 10.9 4 Este 10 Este 0 -- -- 50
2019-04-12 20:00:00 15 8 Nordeste 17 Norte 0 -- -- 33
2019-04-12 19:00:00 15.9 8 Nordeste 16 Norte 0 -- -- 33
2019-04-12 18:00:00 16.3 11 Norte 21 Norte 0 -- -- 35
2019-04-12 17:00:00 15.8 5 Norte 21 Nordeste 0 -- -- 38
2019-04-12 16:00:00 14.9 7 Noroeste 19 Norte 0 -- -- 42
2019-04-12 15:00:00 13.7 10 Noroeste 21 Noroeste 0 -- -- 43
2019-04-12 14:00:00 12.5 9 Norte 21 Nordeste 0 -- -- 47
2019-04-12 13:00:00 10.8 8 Norte 15 Noroeste 0 -- -- 56
2019-04-12 12:00:00 9.4 4 Nordeste 14 Nordeste 0 -- -- 63
2019-04-12 11:00:00 6.8 0 Calma 4 Sudoeste 0 -- -- 79
2019-04-12 10:00:00 2.7 0 Calma 4 Noroeste 0 -- -- 96
2019-04-12 09:00:00 -0.9 0 Calma 4 Norte 0 -- -- 95
2019-04-12 08:00:00 -2 0 Calma 4 Oeste 0 -- -- 92
2019-04-12 07:00:00 -1.5 0 Calma 4 Sudeste 0 -- -- 91
2019-04-12 06:00:00 -0.3 0 Calma 5 Sudeste 0 -- -- 92
2019-04-12 05:00:00 0.8 0 Calma 4 Noroeste 0 -- -- 92
2019-04-12 04:00:00 1.4 0 Calma 6 Norte 0 -- -- 91
2019-04-12 03:00:00 1.9 3 Norte 7 Nordeste 0 -- -- 89
2019-04-12 02:00:00 3 3 Norte 11 Este 0 -- -- 87
2019-04-12 01:00:00 4.7 7 Este 17 Este 0 -- -- 85
2019-04-12 00:00:00 4.5 9 Este 23 Este 0 -- -- 85
2019-04-11 23:00:00 5.5 11 Este 28 Nordeste 0 -- -- 81
2019-04-11 22:00:00 6.3 11 Este 25 Este 0 -- -- 80
2019-04-11 21:00:00 7.6 14 Nordeste 29 Nordeste 0 -- -- 74
2019-04-11 20:00:00 9.7 16 Nordeste 30 Norte 0 -- -- 66
2019-04-11 19:00:00 11.8 12 Nordeste 19 Nordeste 0 -- -- 58
2019-04-11 18:00:00 13.3 7 Noroeste 16 Norte 0 -- -- 48
2019-04-11 17:00:00 12.8 3 Norte 16 Norte 0 -- -- 51
2019-04-11 16:00:00 13 6 Noroeste 15 Noroeste 0 -- -- 47
2019-04-11 15:00:00 11.3 3 Nordeste 11 Este 0 -- -- 52
2019-04-11 14:00:00 11.3 6 Noroeste 16 Noroeste 0 -- -- 54
2019-04-11 13:00:00 11 5 Noroeste 17 Noroeste 0 -- -- 56
2019-04-11 12:00:00 9.1 5 Noroeste 14 Oeste 0 -- -- 63
2019-04-11 11:00:00 7.4 3 Oeste 8 Sudoeste 0 -- -- 77
2019-04-11 10:00:00 4.2 0 Calma 4 Nordeste 0 -- -- 95
2019-04-11 09:00:00 -0.1 2 Sur 6 Sudoeste 0 -- -- 96
2019-04-11 08:00:00 -1.6 0 Calma 7 Este 0 -- -- 94
2019-04-11 07:00:00 -1.6 2 Este 3 Oeste 0 -- -- 94
2019-04-11 06:00:00 -0.3 0 Calma 8 Oeste 0 -- -- 94
2019-04-11 05:00:00 -1.2 0 Calma 5 Oeste 0 -- -- 93
2019-04-11 04:00:00 -0.6 0 Calma 4 Nordeste 0 -- -- 92
2019-04-11 03:00:00 0.6 0 Calma 4 Sudoeste 0 -- -- 90
2019-04-11 02:00:00 1.9 3 Este 5 Este 0 -- -- 90
2019-04-11 01:00:00 2.8 3 Este 9 Este 0 -- -- 90
2019-04-11 00:00:00 2.7 5 Nordeste 13 Este 0 -- -- 88
2019-04-10 23:00:00 4.1 8 Nordeste 19 Nordeste 0 -- -- 87
2019-04-10 22:00:00 5.2 10 Nordeste 21 Nordeste 0 -- -- 85
2019-04-10 21:00:00 6.6 10 Nordeste 27 Nordeste 0 -- -- 81
2019-04-10 20:00:00 9.1 16 Nordeste 26 Nordeste 0 -- -- 72
2019-04-10 19:00:00 8.4 15 Nordeste 42 Nordeste 0 -- -- 75
2019-04-10 18:00:00 12.8 10 Norte 19 Noroeste 0 -- -- 51
2019-04-10 17:00:00 12.8 9 Noroeste 20 Noroeste 0 -- -- 54
2019-04-10 16:00:00 10.5 9 Noroeste 21 Oeste 0 -- -- 63
2019-04-10 15:00:00 9.9 11 Oeste 26 Oeste 0 -- -- 70
2019-04-10 14:00:00 7.5 11 Oeste 18 Oeste 0 -- -- 78
2019-04-10 13:00:00 7.4 3 Noroeste 12 Noroeste 0 -- -- 78
2019-04-10 12:00:00 7.2 6 Noroeste 13 Oeste 0 -- -- 77
2019-04-10 11:00:00 6.1 6 Oeste 17 Oeste 0 -- -- 81
2019-04-10 10:00:00 4.9 9 Sudoeste 16 Sudoeste 0 -- -- 88
2019-04-10 09:00:00 4 9 Sudoeste 17 Sudoeste 0 -- -- 91
2019-04-10 08:00:00 2.9 7 Sudoeste 15 Sudoeste 0 -- -- 93
2019-04-10 07:00:00 2.5 8 Sudoeste 13 Sudoeste 0 -- -- 93
2019-04-10 06:00:00 2.2 6 Sudoeste 12 Sudoeste 0 -- -- 92
2019-04-10 05:00:00 3 8 Sudoeste 18 Sudoeste 0 -- -- 91
2019-04-10 04:00:00 3.5 10 Sudoeste 18 Sudoeste 0 -- -- 91
2019-04-10 03:00:00 4.4 11 Sudoeste 18 Sudoeste 0 -- -- 90
2019-04-10 02:00:00 4.9 8 Sudoeste 13 Sudoeste 0 -- -- 88
2019-04-10 01:00:00 4.9 7 Sudoeste 16 Sur 0 -- -- 87
2019-04-10 00:00:00 6.1 6 Sudoeste 19 Sudoeste 0 -- -- 81
2019-04-09 23:00:00 6.9 11 Sudoeste 25 Sudoeste 0 -- -- 78
2019-04-09 22:00:00 7.3 11 Sudoeste 21 Oeste 0 -- -- 75
2019-04-09 21:00:00 7.9 8 Sudoeste 25 Oeste 0 -- -- 75
2019-04-09 20:00:00 8.7 14 Oeste 40 Oeste 0 -- -- 70
2019-04-09 19:00:00 11.1 17 Oeste 33 Sudoeste 0 -- -- 59
2019-04-09 18:00:00 10.5 19 Oeste 40 Oeste 0 -- -- 65
2019-04-09 17:00:00 10.7 25 Oeste 42 Oeste 0 -- -- 62
2019-04-09 16:00:00 9.2 20 Oeste 37 Oeste 0.2 -- -- 72
2019-04-09 15:00:00 7.3 18 Oeste 33 Oeste 0 -- -- 84
2019-04-09 14:00:00 6.8 20 Oeste 48 Oeste 1 -- -- 84
2019-04-09 13:00:00 7.7 17 Oeste 33 Oeste 0.2 -- -- 83
2019-04-09 12:00:00 7 13 Sudoeste 26 Sudoeste 0.6 -- -- 86
2019-04-09 11:00:00 6.4 13 Sudoeste 23 Sudoeste 0.2 -- -- 88
2019-04-09 10:00:00 5.8 12 Sudoeste 28 Sudoeste 0.2 -- -- 88
2019-04-09 09:00:00 5.2 12 Sudoeste 24 Sudoeste 0 -- -- 88
2019-04-09 08:00:00 4.8 10 Sudoeste 24 Sudoeste 0 -- -- 87
2019-04-09 07:00:00 4.7 8 Sudoeste 19 Sudoeste 0 -- -- 88
2019-04-09 06:00:00 4.2 9 Sudoeste 19 Sudoeste 0 -- -- 88
2019-04-09 05:00:00 4.1 9 Sudoeste 21 Sudoeste 0 -- -- 87
2019-04-09 04:00:00 4.3 11 Sudoeste 22 Sudoeste 0 -- -- 85
2019-04-09 03:00:00 4.6 10 Sudoeste 20 Sudoeste 0 -- -- 83
2019-04-09 02:00:00 4.9 7 Sudoeste 16 Sudoeste 0 -- -- 82
2019-04-09 01:00:00 5 6 Sudoeste 14 Sudoeste 0 -- -- 80
2019-04-09 00:00:00 5.7 3 Sudoeste 12 Sudoeste 0 -- -- 79
2019-04-08 23:00:00 6.8 7 Sudoeste 23 Oeste 0 -- -- 76
2019-04-08 22:00:00 8.3 14 Oeste 33 Sudoeste 0 -- -- 70
2019-04-08 21:00:00 9.9 9 Sudoeste 27 Sudoeste 0 -- -- 61
2019-04-08 20:00:00 11.8 14 Oeste 35 Sudoeste 0 -- -- 52
2019-04-08 19:00:00 13 20 Oeste 36 Oeste 0 -- -- 47
2019-04-08 18:00:00 13.5 20 Oeste 35 Sudoeste 0 -- -- 45
2019-04-08 17:00:00 12.9 19 Sudoeste 36 Sudoeste 0 -- -- 47
2019-04-08 16:00:00 12.4 19 Oeste 35 Sudoeste 0 -- -- 46
2019-04-08 15:00:00 11.4 14 Oeste 28 Oeste 0 -- -- 61
2019-04-08 14:00:00 10.1 11 Oeste 31 Oeste 0 -- -- 69
2019-04-08 13:00:00 10.1 12 Oeste 27 Oeste 0 -- -- 74
2019-04-08 12:00:00 9.9 12 Oeste 23 Oeste 0 -- -- 79
2019-04-08 11:00:00 9.6 14 Oeste 28 Oeste 0 -- -- 79
2019-04-08 10:00:00 8.6 17 Oeste 29 Oeste 0 -- -- 86
2019-04-08 09:00:00 8.1 16 Sudoeste 28 Oeste 0 -- -- 89
2019-04-08 08:00:00 8 14 Sudoeste 26 Sudoeste 0 -- -- 92
2019-04-08 07:00:00 7.6 10 Sudoeste 21 Sudoeste 0.2 -- -- 93
2019-04-08 06:00:00 7.6 13 Sudoeste 25 Sudoeste 0.2 -- -- 92
2019-04-08 05:00:00 7.6 15 Sudoeste 28 Sudoeste 0.4 -- -- 92
2019-04-08 04:00:00 7.7 14 Sudoeste 29 Sudoeste 0 -- -- 90
2019-04-08 03:00:00 7.4 18 Sudoeste 37 Sudoeste 0.2 -- -- 91
2019-04-08 02:00:00 6 10 Sur 23 Sur 0.2 -- -- 91
2019-04-08 01:00:00 5.6 8 Sur 22 Sur 0.2 -- -- 90
2019-04-08 00:00:00 5.5 5 Sur 21 Sur 0.6 -- -- 88
2019-04-07 23:00:00 5.5 5 Sur 22 Sudoeste 0.4 -- -- 87
2019-04-07 22:00:00 5.6 8 Sudoeste 18 Oeste 0.8 -- -- 89
2019-04-07 21:00:00 5.7 14 Sudoeste 27 Sudoeste 0.8 -- -- 86
2019-04-07 20:00:00 6.5 16 Sudoeste 36 Sudoeste 1 -- -- 84
2019-04-07 19:00:00 9.2 24 Sudoeste 40 Sudoeste 0 -- -- 61
2019-04-07 18:00:00 11.2 18 Sudoeste 31 Sudoeste 0 -- -- 46
2019-04-07 17:00:00 11.9 17 Oeste 33 Sudoeste 0 -- -- 45
2019-04-07 16:00:00 11.3 15 Sudoeste 30 Oeste 0 -- -- 47
2019-04-07 15:00:00 10.8 16 Sudoeste 28 Sudoeste 0 -- -- 48
2019-04-07 14:00:00 9.6 17 Oeste 30 Oeste 0 -- -- 57
2019-04-07 13:00:00 8.1 14 Oeste 28 Oeste 0 -- -- 63
2019-04-07 12:00:00 6.7 12 Oeste 23 Oeste 0 -- -- 72
2019-04-07 11:00:00 4.6 12 Oeste 26 Oeste 0 -- -- 79
2019-04-07 10:00:00 2.9 11 Sudoeste 20 Sudoeste 0 -- -- 86
2019-04-07 09:00:00 0.9 9 Sudoeste 21 Sudoeste 0 -- -- 91
2019-04-07 08:00:00 0.7 13 Sudoeste 24 Sudoeste 0 -- -- 90
2019-04-07 07:00:00 0.6 8 Sudoeste 19 Sudoeste 0 -- -- 90
2019-04-07 06:00:00 1 10 Sudoeste 21 Sudoeste 0 -- -- 90
2019-04-07 05:00:00 1.2 8 Sudoeste 17 Sudoeste 0 -- -- 90
2019-04-07 04:00:00 1.8 6 Oeste 23 Oeste 0 -- -- 88
2019-04-07 03:00:00 2.4 17 Oeste 32 Oeste 0 -- -- 86
2019-04-07 02:00:00 2.2 10 Sudoeste 21 Oeste 0 -- -- 84
2019-04-07 01:00:00 2.9 10 Sudoeste 22 Oeste 0 -- -- 78
2019-04-07 00:00:00 3.4 7 Oeste 18 Sudoeste 0 -- -- 75
2019-04-06 23:00:00 4.3 10 Oeste 39 Noroeste 0 -- -- 76
2019-04-06 22:00:00 4.8 12 Oeste 39 Oeste 0 -- -- 77
2019-04-06 21:00:00 5.2 11 Noroeste 36 Sudoeste 0 -- -- 78
2019-04-06 20:00:00 6.3 21 Sudoeste 37 Sudoeste 0 -- -- 78
2019-04-06 19:00:00 5.1 17 Sudoeste 35 Sudoeste 0 -- -- 83
2019-04-06 18:00:00 4.6 17 Oeste 52 Oeste 0.4 -- -- 83
2019-04-06 17:00:00 7.8 22 Oeste 45 Sudoeste 0 -- -- 70
2019-04-06 16:00:00 7.5 20 Sudoeste 43 Oeste 0.2 -- -- 73
2019-04-06 15:00:00 5.9 25 Oeste 40 Sudoeste 0.2 -- -- 81
2019-04-06 14:00:00 5.3 29 Sudoeste 44 Sudoeste 0.6 -- -- 84
2019-04-06 13:00:00 4.5 18 Sudoeste 40 Oeste 1 -- -- 84
2019-04-06 12:00:00 4.7 17 Sudoeste 33 Sudoeste 0 -- -- 80
2019-04-06 11:00:00 4.5 19 Sudoeste 33 Sudoeste 0 -- -- 82
2019-04-06 10:00:00 3.5 15 Sudoeste 26 Sudoeste 0 -- -- 91
2019-04-06 09:00:00 2.8 12 Sudoeste 22 Sudoeste 0.2 -- -- 91
2019-04-06 08:00:00 2.6 12 Sudoeste 24 Sudoeste 0 -- -- 89
2019-04-06 07:00:00 2.7 13 Sudoeste 28 Sudoeste 0 -- -- 88
2019-04-06 06:00:00 2.5 17 Oeste 31 Oeste 0 -- -- 88
2019-04-06 05:00:00 2.9 15 Oeste 27 Sudoeste 0 -- -- 89
2019-04-06 04:00:00 2.7 14 Sudoeste 32 Oeste 0 -- -- 90
2019-04-06 03:00:00 3.1 14 Sudoeste 28 Oeste 0 -- -- 88
2019-04-06 02:00:00 2.5 6 Sudoeste 18 Sudoeste 0 -- -- 89
2019-04-06 01:00:00 2.8 11 Sudoeste 21 Sudoeste 0 -- -- 87
2019-04-06 00:00:00 3 9 Sudoeste 24 Sudoeste 0 -- -- 88
2019-04-05 23:00:00 3.5 12 Sudoeste 17 Sudoeste 0.2 -- -- 87
2019-04-05 22:00:00 3.4 6 Sudoeste 15 Sudoeste 0.8 -- -- 83
2019-04-05 21:00:00 4.6 6 Oeste 22 Sur 0.6 -- -- 78
2019-04-05 20:00:00 6 10 Sur 23 Sur 0 -- -- 73
2019-04-05 19:00:00 7 17 Sur 26 Sur 0 -- -- 74
2019-04-05 18:00:00 7.2 11 Sudoeste 20 Sudoeste 0 -- -- 65
2019-04-05 17:00:00 5.7 7 Sudoeste 18 Sudoeste 0.2 -- -- 75
2019-04-05 16:00:00 5.4 10 Sudoeste 20 Sudoeste 0.6 -- -- 75
2019-04-05 15:00:00 7 9 Sudoeste 26 Sudoeste 0 -- -- 63
2019-04-05 14:00:00 6.7 17 Sudoeste 28 Sudoeste 0 -- -- 62
2019-04-05 13:00:00 7 17 Sudoeste 26 Sudoeste 0 -- -- 70
2019-04-05 12:00:00 5.2 18 Oeste 27 Sudoeste 0 -- -- 78
2019-04-05 11:00:00 4.6 10 Sudoeste 19 Sudoeste 0 -- -- 85
2019-04-05 10:00:00 4.3 11 Sudoeste 23 Oeste 0.2 -- -- 87
2019-04-05 09:00:00 4.5 13 Sudoeste 25 Sudoeste 0.4 -- -- 89
2019-04-05 08:00:00 4.5 14 Sudoeste 25 Sur 0 -- -- 89
2019-04-05 07:00:00 3.9 13 Sudoeste 23 Sur 0.2 -- -- 90
2019-04-05 06:00:00 3.6 12 Sudoeste 27 Sur 0.6 -- -- 88
2019-04-05 05:00:00 4.1 11 Sudoeste 29 Sudoeste 0.8 -- -- 86
2019-04-05 04:00:00 4.2 16 Sur 30 Sur 0.2 -- -- 84
2019-04-05 03:00:00 4.2 15 Sur 27 Sudoeste 0.2 -- -- 84
2019-04-05 02:00:00 4 8 Sudoeste 22 Sur 0.2 -- -- 86
2019-04-05 01:00:00 4 10 Sudoeste 22 Sudoeste 0 -- -- 86
2019-04-05 00:00:00 3.9 11 Sudoeste 19 Sudoeste 0.4 -- -- 86
2019-04-04 23:00:00 3.8 9 Sudoeste 17 Sudoeste 0.4 -- -- 86
2019-04-04 22:00:00 4 12 Sudoeste 25 Sudoeste 0.4 -- -- 83
2019-04-04 21:00:00 4.6 13 Oeste 43 Sudoeste 0 -- -- 79
2019-04-04 20:00:00 6.8 21 Oeste 42 Sudoeste 0 -- -- 56
2019-04-04 19:00:00 9.4 23 Oeste 52 Sudoeste 0 -- -- 37
2019-04-04 18:00:00 10.5 22 Sudoeste 37 Sudoeste 0 -- -- 36
2019-04-04 17:00:00 11.6 19 Sudoeste 42 Sudoeste 0 -- -- 32
2019-04-04 16:00:00 10.8 18 Sudoeste 36 Sudoeste 0 -- -- 36
2019-04-04 15:00:00 10.3 18 Oeste 37 Sudoeste 0 -- -- 37
2019-04-04 14:00:00 9.5 18 Oeste 32 Oeste 0 -- -- 37
2019-04-04 13:00:00 8.7 18 Oeste 30 Oeste 0 -- -- 42
2019-04-04 12:00:00 6.5 15 Oeste 26 Oeste 0 -- -- 52
2019-04-04 11:00:00 4.3 12 Oeste 24 Oeste 0 -- -- 62
2019-04-04 10:00:00 2 6 Sudoeste 15 Sudoeste 0 -- -- 71
2019-04-04 09:00:00 -1.1 6 Sudoeste 14 Sudoeste 0 -- -- 80
2019-04-04 08:00:00 -2.5 5 Sudoeste 13 Sudoeste 0 -- -- 84
2019-04-04 07:00:00 -2 5 Sudoeste 10 Sudoeste 0 -- -- 83
2019-04-04 06:00:00 -1.5 6 Sudoeste 19 Sudoeste 0 -- -- 82
2019-04-04 05:00:00 -1 11 Sudoeste 17 Oeste 0 -- -- 79
2019-04-04 04:00:00 -1.2 4 Sudoeste 9 Sudoeste 0 -- -- 73
2019-04-04 03:00:00 -1.4 3 Sudoeste 7 Oeste 0 -- -- 73
2019-04-04 02:00:00 -0.3 6 Oeste 14 Oeste 0 -- -- 72
2019-04-04 01:00:00 -0.5 3 Sudoeste 8 Sudoeste 0 -- -- 73
2019-04-04 00:00:00 0.7 3 Sudoeste 7 Oeste 0 -- -- 67
2019-04-03 23:00:00 1.8 4 Noroeste 22 Noroeste 0 -- -- 61
2019-04-03 22:00:00 2.9 9 Noroeste 20 Noroeste 0 -- -- 54
2019-04-03 21:00:00 4.7 11 Norte 30 Noroeste 0 -- -- 46
2019-04-03 20:00:00 7.1 21 Norte 38 Noroeste 0 -- -- 37
2019-04-03 19:00:00 9.2 23 Noroeste 39 Noroeste 0 -- -- 33
2019-04-03 18:00:00 10.4 27 Noroeste 40 Noroeste 0 -- -- 31
2019-04-03 17:00:00 9.9 27 Noroeste 56 Noroeste 0 -- -- 36
2019-04-03 16:00:00 12.5 33 Noroeste 46 Noroeste 0 -- -- 30
2019-04-03 15:00:00 11.2 22 Noroeste 37 Noroeste 0 -- -- 33
2019-04-03 14:00:00 10.2 19 Oeste 33 Oeste 0 -- -- 40
2019-04-03 13:00:00 10.8 24 Oeste 42 Oeste 0 -- -- 39
2019-04-03 12:00:00 10 19 Noroeste 39 Oeste 0 -- -- 40
2019-04-03 11:00:00 8.2 16 Noroeste 30 Oeste 0 -- -- 56
2019-04-03 10:00:00 5.1 10 Oeste 16 Oeste 0 -- -- 82
2019-04-03 09:00:00 4.1 5 Sudoeste 7 Sudoeste 0 -- -- 90
2019-04-03 08:00:00 3.3 4 Sudoeste 10 Oeste 0 -- -- 91
2019-04-03 07:00:00 2.9 5 Oeste 9 Oeste 0 -- -- 92
2019-04-03 06:00:00 1.6 2 Oeste 3 Oeste 0 -- -- 92
2019-04-03 05:00:00 0.9 2 Este 3 Nordeste 0 -- -- 88
2019-04-03 04:00:00 3 2 Sur 14 Este 0 -- -- 88
2019-04-03 03:00:00 3.9 7 Sudoeste 16 Este 0 -- -- 87
2019-04-03 02:00:00 3.9 2 Noroeste 13 Este 0 -- -- 85
2019-04-03 01:00:00 5.7 8 Nordeste 17 Este 0 -- -- 82
2019-04-03 00:00:00 6.3 11 Nordeste 26 Nordeste 0 -- -- 81
2019-04-02 23:00:00 6.7 16 Nordeste 25 Este 0 -- -- 80
2019-04-02 22:00:00 7.2 13 Nordeste 26 Nordeste 0 -- -- 78
2019-04-02 21:00:00 8.9 14 Nordeste 24 Nordeste 0 -- -- 70
2019-04-02 20:00:00 12.8 19 Nordeste 37 Nordeste 0 -- -- 57
2019-04-02 19:00:00 17.4 10 Oeste 28 Oeste 0 -- -- 35
2019-04-02 18:00:00 17.6 10 Norte 18 Norte 0 -- -- 37
2019-04-02 17:00:00 17.6 11 Noroeste 19 Noroeste 0 -- -- 38
2019-04-02 16:00:00 17.5 12 Noroeste 41 Norte 0 -- -- 39
2019-04-02 15:00:00 16.2 6 Norte 20 Nordeste 0 -- -- 40
2019-04-02 14:00:00 15.7 10 Este 22 Nordeste 0 -- -- 41
2019-04-02 13:00:00 14.1 9 Este 21 Este 0 -- -- 45
2019-04-02 12:00:00 13.3 12 Este 28 Este 0 -- -- 49
2019-04-02 11:00:00 12.2 14 Nordeste 29 Este 0 -- -- 54
2019-04-02 10:00:00 8.5 8 Nordeste 14 Este 0 -- -- 75
2019-04-02 09:00:00 4.1 3 Nordeste 10 Este 0 -- -- 88
2019-04-02 08:00:00 4.5 6 Nordeste 14 Nordeste 0 -- -- 88
2019-04-02 07:00:00 4.1 2 Nordeste 10 Nordeste 0 -- -- 87
2019-04-02 06:00:00 5.4 8 Nordeste 12 Nordeste 0 -- -- 89
2019-04-02 05:00:00 4.9 4 Nordeste 14 Este 0 -- -- 86
2019-04-02 04:00:00 5.8 7 Nordeste 12 Nordeste 0 -- -- 87
2019-04-02 03:00:00 6.3 2 Norte 8 Este 0 -- -- 83
2019-04-02 02:00:00 6.9 3 Nordeste 8 Este 0 -- -- 81
2019-04-02 01:00:00 7.6 0 Calma 17 Este 0 -- -- 78
2019-04-02 00:00:00 8.3 12 Este 19 Sudeste 0 -- -- 75
2019-04-01 23:00:00 9.2 12 Este 19 Este 0 -- -- 70
2019-04-01 22:00:00 10.5 9 Nordeste 13 Este 0 -- -- 66
2019-04-01 21:00:00 12.5 7 Este 12 Este 0 -- -- 56
2019-04-01 20:00:00 14.5 8 Este 14 Este 0 -- -- 48
2019-04-01 19:00:00 16.5 4 Este 18 Este 0 -- -- 42
2019-04-01 18:00:00 15 7 Nordeste 18 Nordeste 0 -- -- 46
2019-04-01 17:00:00 17.1 12 Nordeste 19 Nordeste 0 -- -- 44
2019-04-01 16:00:00 15.1 8 Nordeste 19 Norte 0 -- -- 46
2019-04-01 15:00:00 15.8 8 Norte 21 Norte 0 -- -- 45
2019-04-01 14:00:00 14.5 7 Norte 17 Norte 0 -- -- 45
2019-04-01 13:00:00 13.6 5 Noroeste 9 Noroeste 0 -- -- 52
2019-04-01 12:00:00 11.4 4 Sur 9 Sudoeste 0 -- -- 61
2019-04-01 11:00:00 8.2 0 Calma 6 Norte 0 -- -- 73
2019-04-01 10:00:00 3 0 Calma 4 Este 0 -- -- 91
2019-04-01 09:00:00 0.3 0 Calma 2 Sudoeste 0 -- -- 93
2019-04-01 08:00:00 -0.7 0 Calma 2 Oeste 0 -- -- 92
2019-04-01 07:00:00 -0.7 0 Calma 2 Sudeste 0 -- -- 91
2019-04-01 06:00:00 -0.1 2 Este 4 Nordeste 0 -- -- 91
2019-04-01 05:00:00 0.6 0 Calma 2 Este 0 -- -- 89
2019-04-01 04:00:00 1.5 0 Calma 2 Noroeste 0 -- -- 86
2019-04-01 03:00:00 3.2 2 Este 7 Este 0 -- -- 85
2019-04-01 02:00:00 4.5 3 Nordeste 7 Sudeste 0 -- -- 81
2019-04-01 01:00:00 7.1 0 Calma 7 Nordeste 0 -- -- 75
2019-04-01 00:00:00 7.6 0 Calma 21 Sudeste 0 -- -- 74
2019-03-31 23:00:00 8.7 10 Sudeste 25 Sur 0 -- -- 70
2019-03-31 22:00:00 10 15 Sudeste 26 Sudeste 0 -- -- 65
2019-03-31 21:00:00 11.8 14 Sudeste 26 Sudeste 0 -- -- 56
2019-03-31 20:00:00 14.5 15 Sudeste 33 Este 0 -- -- 43
2019-03-31 19:00:00 15.6 13 Este 31 Este 0 -- -- 35
2019-03-31 18:00:00 17 13 Nordeste 28 Este 0 -- -- 33
2019-03-31 17:00:00 18.3 14 Nordeste 27 Nordeste 0 -- -- 29
2019-03-31 16:00:00 17.9 13 Nordeste 27 Este 0 -- -- 31
2019-03-31 15:00:00 17.7 13 Nordeste 24 Nordeste 0 -- -- 31
2019-03-31 14:00:00 16.5 12 Este 22 Este 0 -- -- 33
2019-03-31 13:00:00 15.9 9 Nordeste 19 Este 0 -- -- 36
2019-03-31 12:00:00 14.3 8 Nordeste 17 Nordeste 0 -- -- 43
2019-03-31 11:00:00 11 10 Nordeste 16 Nordeste 0 -- -- 52
2019-03-31 10:00:00 7.5 8 Nordeste 15 Este 0 -- -- 62
2019-03-31 09:00:00 2.8 2 Nordeste 13 Nordeste 0 -- -- 76
2019-03-31 08:00:00 1.3 5 Norte 9 Nordeste 0 -- -- 77
2019-03-31 07:00:00 2.2 4 Noroeste 18 Este 0 -- -- 70
2019-03-31 06:00:00 3.6 10 Este 17 Este 0 -- -- 67
2019-03-31 05:00:00 2.2 4 Noroeste 13 Este 0 -- -- 73
2019-03-31 03:00:00 5.1 0 Calma 11 Este 0 -- -- 62
2019-03-31 01:00:00 6.1 6 Este 11 Este 0 -- -- 62
2019-03-31 00:00:00 9 6 Este 19 Este 0 -- -- 54
2019-03-30 23:00:00 9.7 8 Este 17 Este 0 -- -- 51
2019-03-30 22:00:00 10.5 9 Nordeste 16 Nordeste 0 -- -- 53
2019-03-30 21:00:00 11.4 8 Nordeste 20 Este 0 -- -- 51
2019-03-30 20:00:00 14.5 12 Este 24 Este 0 -- -- 38
2019-03-30 19:00:00 15.6 10 Este 18 Este 0 -- -- 36
2019-03-30 18:00:00 17.5 10 Nordeste 17 Nordeste 0 -- -- 28
2019-03-30 17:00:00 17.1 5 Nordeste 14 Este 0 -- -- 28
2019-03-30 16:00:00 18.8 6 Este 18 Este 0 -- -- 25
2019-03-30 15:00:00 19 4 Sudoeste 20 Sudeste 0 -- -- 25
2019-03-30 14:00:00 18.6 7 Sudeste 30 Sur 0 -- -- 26
2019-03-30 13:00:00 17.3 8 Sudeste 20 Este 0 -- -- 32
2019-03-30 12:00:00 15.7 7 Sur 18 Sudeste 0 -- -- 38
2019-03-30 11:00:00 13.7 8 Sudeste 17 Sudeste 0 -- -- 43
2019-03-30 10:00:00 9.7 2 Sur 24 Sudeste 0 -- -- 53
2019-03-30 09:00:00 8.3 11 Sudeste 21 Sudeste 0 -- -- 57
2019-03-30 08:00:00 5.5 0 Calma 6 Nordeste 0 -- -- 67
2019-03-30 07:00:00 4.2 3 Nordeste 12 Este 0 -- -- 69
2019-03-30 06:00:00 4.8 2 Este 10 Este 0 -- -- 64
2019-03-30 05:00:00 6.2 0 Calma 8 Este 0 -- -- 59
2019-03-30 04:00:00 6.7 2 Nordeste 19 Sudeste 0 -- -- 58
2019-03-30 03:00:00 8.5 11 Sur 23 Sur 0 -- -- 52
2019-03-30 02:00:00 8.4 9 Sur 23 Sur 0 -- -- 48
2019-03-30 01:00:00 8.5 13 Sudeste 25 Sudeste 0 -- -- 43
2019-03-30 00:00:00 9.4 5 Sudoeste 19 Sur 0 -- -- 42
2019-03-29 23:00:00 10 14 Sur 21 Sur 0 -- -- 42
2019-03-29 22:00:00 8.7 4 Este 12 Este 0 -- -- 49
2019-03-29 21:00:00 8.1 6 Este 9 Este 0 -- -- 53
2019-03-29 20:00:00 13.2 0 Calma 6 Oeste 0 -- -- 38
2019-03-29 19:00:00 18.1 4 Oeste 10 Sur 0 -- -- 26
2019-03-29 18:00:00 19.2 5 Sudoeste 14 Sur 0 -- -- 25
2019-03-29 17:00:00 19.4 5 Noroeste 22 Oeste 0 -- -- 24
2019-03-29 16:00:00 19.1 10 Oeste 22 Sudoeste 0 -- -- 25
2019-03-29 15:00:00 18.8 11 Sudoeste 22 Sudoeste 0 -- -- 25
2019-03-29 14:00:00 17.7 12 Sudoeste 24 Sudoeste 0 -- -- 26
2019-03-29 13:00:00 16.7 15 Sudoeste 24 Sudoeste 0 -- -- 28
2019-03-29 12:00:00 15.3 8 Sur 26 Sur 0 -- -- 33
2019-03-29 11:00:00 12.8 8 Sur 14 Sur 0 -- -- 41
2019-03-29 10:00:00 10.1 3 Sur 12 Sudeste 0 -- -- 49
2019-03-29 09:00:00 4.3 2 Nordeste 5 Norte 0 -- -- 74
2019-03-29 08:00:00 -0.5 0 Calma 3 Oeste 0 -- -- 84
2019-03-29 07:00:00 -0.3 0 Calma 6 Nordeste 0 -- -- 80
2019-03-29 06:00:00 1.1 4 Este 12 Este 0 -- -- 71
2019-03-29 05:00:00 -0.6 2 Este 6 Este 0 -- -- 81
2019-03-29 04:00:00 -0.2 0 Calma 5 Nordeste 0 -- -- 77
2019-03-29 03:00:00 1.8 0 Calma 12 Nordeste 0 -- -- 73
2019-03-29 02:00:00 3.1 9 Este 20 Este 0 -- -- 70
2019-03-29 01:00:00 2.5 3 Nordeste 11 Nordeste 0 -- -- 71
2019-03-29 00:00:00 4.8 5 Este 23 Este 0 -- -- 65
2019-03-28 23:00:00 4.9 3 Nordeste 15 Este 0 -- -- 63
2019-03-28 22:00:00 7.1 7 Este 25 Nordeste 0 -- -- 59
2019-03-28 21:00:00 8.2 13 Este 20 Este 0 -- -- 58
2019-03-28 20:00:00 10.9 8 Nordeste 28 Nordeste 0 -- -- 52
2019-03-28 19:00:00 14 17 Nordeste 37 Nordeste 0 -- -- 43
2019-03-28 18:00:00 15.9 21 Nordeste 37 Nordeste 0 -- -- 37
2019-03-28 17:00:00 16.9 21 Nordeste 41 Este 0 -- -- 36
2019-03-28 16:00:00 17.2 22 Nordeste 46 Este 0 -- -- 33
2019-03-28 15:00:00 16.7 20 Nordeste 37 Este 0 -- -- 31
2019-03-28 14:00:00 15.3 21 Nordeste 37 Nordeste 0 -- -- 36
2019-03-28 13:00:00 13.9 23 Nordeste 37 Nordeste 0 -- -- 41
2019-03-28 12:00:00 12.2 23 Nordeste 37 Nordeste 0 -- -- 46
2019-03-28 11:00:00 10.4 17 Nordeste 36 Nordeste 0 -- -- 54
2019-03-28 10:00:00 8.1 18 Nordeste 33 Nordeste 0 -- -- 64
2019-03-28 09:00:00 5.9 14 Nordeste 24 Nordeste 0 -- -- 75
2019-03-28 08:00:00 2.7 16 Nordeste 28 Nordeste 0 -- -- 83
2019-03-28 07:00:00 1.3 14 Nordeste 31 Nordeste 0 -- -- 87
2019-03-28 06:00:00 0.8 14 Nordeste 22 Nordeste 0 -- -- 88
2019-03-28 05:00:00 -0.1 9 Nordeste 14 Nordeste 0 -- -- 81
2019-03-28 04:00:00 0.8 9 Nordeste 16 Este 0 -- -- 76
2019-03-28 03:00:00 2.3 11 Este 17 Este 0 -- -- 62
2019-03-28 02:00:00 3.2 9 Este 15 Este 0 -- -- 52
2019-03-28 01:00:00 3.4 0 Calma 10 Sudoeste 0 -- -- 52
2019-03-28 00:00:00 3.4 2 Noroeste 9 Oeste 0 -- -- 53
2019-03-27 23:00:00 4.8 4 Sur 10 Nordeste 0 -- -- 47
2019-03-27 22:00:00 4.8 8 Nordeste 23 Nordeste 0 -- -- 60
2019-03-27 21:00:00 7.3 10 Nordeste 30 Nordeste 0 -- -- 53
2019-03-27 20:00:00 9.3 15 Nordeste 45 Nordeste 0 -- -- 38
2019-03-27 19:00:00 12.7 28 Nordeste 45 Nordeste 0 -- -- 27
2019-03-27 18:00:00 15.1 23 Nordeste 44 Nordeste 0 -- -- 24
2019-03-27 17:00:00 16.6 27 Nordeste 50 Nordeste 0 -- -- 23
2019-03-27 16:00:00 17.4 25 Este 45 Este 0 -- -- 20
2019-03-27 15:00:00 16.7 23 Este 44 Este 0 -- -- 22
2019-03-27 14:00:00 16.6 24 Nordeste 47 Este 0 -- -- 24
2019-03-27 13:00:00 15.7 27 Este 50 Este 0 -- -- 20
2019-03-27 12:00:00 14.2 28 Este 49 Este 0 -- -- 20
2019-03-27 11:00:00 12.2 22 Este 37 Nordeste 0 -- -- 28
2019-03-27 10:00:00 9.1 19 Este 31 Este 0 -- -- 44
2019-03-27 09:00:00 6 12 Este 24 Este 0 -- -- 58
2019-03-27 08:00:00 2.4 15 Este 29 Este 0 -- -- 71
2019-03-27 07:00:00 0.6 14 Nordeste 29 Este 0 -- -- 79
2019-03-27 06:00:00 1.8 13 Nordeste 25 Este 0 -- -- 76
2019-03-27 05:00:00 0.8 8 Este 18 Este 0 -- -- 76
2019-03-27 04:00:00 0.9 10 Nordeste 34 Nordeste 0 -- -- 74
2019-03-27 03:00:00 2.5 24 Nordeste 35 Nordeste 0 -- -- 69
2019-03-27 02:00:00 2.4 17 Nordeste 32 Nordeste 0 -- -- 64
2019-03-27 01:00:00 3.4 19 Nordeste 32 Nordeste 0 -- -- 57
2019-03-27 00:00:00 3.9 3 Sur 37 Nordeste 0 -- -- 51
2019-03-26 23:00:00 4.5 7 Norte 33 Este 0 -- -- 45
2019-03-26 22:00:00 4.9 18 Nordeste 39 Este 0 -- -- 41
2019-03-26 21:00:00 5.8 19 Nordeste 37 Nordeste 0 -- -- 39
2019-03-26 20:00:00 8 16 Nordeste 40 Nordeste 0 -- -- 33
2019-03-26 19:00:00 11.5 24 Nordeste 54 Este 0 -- -- 24
2019-03-26 18:00:00 13.5 28 Nordeste 51 Este 0 -- -- 24
2019-03-26 17:00:00 15 30 Nordeste 52 Este 0 -- -- 24
2019-03-26 16:00:00 15.3 29 Nordeste 60 Este 0 -- -- 22
2019-03-26 15:00:00 14.6 37 Nordeste 59 Este 0 -- -- 23
2019-03-26 14:00:00 14 33 Este 64 Este 0 -- -- 25
2019-03-26 13:00:00 13.1 35 Este 57 Este 0 -- -- 25
2019-03-26 12:00:00 11.8 35 Nordeste 60 Nordeste 0 -- -- 28
2019-03-26 11:00:00 9.7 33 Este 59 Este 0 -- -- 35
2019-03-26 10:00:00 7.8 23 Nordeste 46 Este 0 -- -- 46
2019-03-26 09:00:00 5.2 18 Nordeste 33 Este 0 -- -- 59
2019-03-26 08:00:00 2.8 16 Nordeste 28 Nordeste 0 -- -- 73
2019-03-26 07:00:00 2.7 17 Nordeste 36 Este 0 -- -- 76
2019-03-26 06:00:00 3.3 23 Nordeste 43 Nordeste 0 -- -- 74
2019-03-26 05:00:00 3.5 18 Nordeste 36 Nordeste 0 -- -- 78
2019-03-26 04:00:00 4.5 19 Nordeste 36 Nordeste 0 -- -- 76
2019-03-26 03:00:00 4.7 21 Nordeste 34 Nordeste 0 -- -- 74
2019-03-26 02:00:00 3 15 Nordeste 29 Nordeste 0 -- -- 75
2019-03-26 01:00:00 2.8 20 Nordeste 32 Nordeste 0 -- -- 77
2019-03-26 00:00:00 3.2 15 Nordeste 45 Nordeste 0 -- -- 74
2019-03-25 23:00:00 3.7 21 Nordeste 40 Nordeste 0 -- -- 72
2019-03-25 22:00:00 4.1 15 Nordeste 31 Nordeste 0 -- -- 68
2019-03-25 21:00:00 4.9 14 Nordeste 30 Nordeste 0 -- -- 69
2019-03-25 20:00:00 7 15 Nordeste 39 Nordeste 0 -- -- 54
2019-03-25 19:00:00 9.5 28 Nordeste 46 Nordeste 0 -- -- 48
2019-03-25 18:00:00 11.5 26 Nordeste 46 Nordeste 0 -- -- 45
2019-03-25 17:00:00 12.4 30 Nordeste 47 Nordeste 0 -- -- 46
2019-03-25 16:00:00 13.4 29 Nordeste 48 Nordeste 0 -- -- 46
2019-03-25 15:00:00 13.5 30 Nordeste 49 Nordeste 0 -- -- 47
2019-03-25 14:00:00 12.8 28 Nordeste 43 Este 0 -- -- 47
2019-03-25 13:00:00 12.4 26 Nordeste 48 Nordeste 0 -- -- 49
2019-03-25 12:00:00 11.5 29 Nordeste 44 Nordeste 0 -- -- 54
2019-03-25 11:00:00 10.1 28 Nordeste 45 Nordeste 0 -- -- 61
2019-03-25 10:00:00 8 26 Nordeste 43 Nordeste 0 -- -- 66
2019-03-25 09:00:00 7.2 20 Nordeste 36 Nordeste 0 -- -- 75
2019-03-25 08:00:00 4.8 14 Nordeste 36 Este 0 -- -- 86
2019-03-25 07:00:00 3.5 13 Nordeste 26 Nordeste 0 -- -- 88
2019-03-25 06:00:00 2.8 15 Este 26 Este 0 -- -- 91
2019-03-25 05:00:00 1.2 6 Nordeste 11 Nordeste 0 -- -- 88
2019-03-25 04:00:00 2.2 6 Nordeste 14 Este 0 -- -- 86
2019-03-25 03:00:00 4.1 5 Nordeste 17 Este 0 -- -- 81
2019-03-25 02:00:00 5 12 Este 18 Este 0 -- -- 83
2019-03-25 01:00:00 5.7 8 Este 17 Este 0 -- -- 82
2019-03-25 00:00:00 6.5 11 Este 19 Este 0 -- -- 76